createdAt,value
2018-05-18T00:00:09.596Z,10.40
2018-05-18T00:02:39.975Z,10.40
2018-05-18T00:05:09.614Z,10.50
2018-05-18T00:07:39.355Z,10.50
2018-05-18T00:10:10.626Z,10.50
2018-05-18T00:12:41.017Z,10.50
2018-05-18T00:15:10.749Z,10.50
2018-05-18T00:17:42.607Z,10.40
2018-05-18T00:20:26.866Z,10.30
2018-05-18T00:22:57.253Z,10.40
2018-05-18T00:25:27.105Z,10.40
2018-05-18T00:27:57.605Z,10.40
2018-05-18T00:30:27.938Z,10.40
2018-05-18T00:32:57.543Z,10.40
2018-05-18T00:35:28.188Z,10.30
2018-05-18T00:38:01.386Z,10.20
2018-05-18T00:40:31.910Z,10.10
2018-05-18T00:43:02.156Z,10.10
2018-05-18T00:45:33.495Z,10.00
2018-05-18T00:48:03.926Z,10.10
2018-05-18T00:50:35.140Z,10.00
2018-05-18T00:53:04.925Z,10.00
2018-05-18T00:55:42.986Z,10.00
2018-05-18T00:58:12.796Z,10.10
2018-05-18T01:03:45.255Z,10.20
2018-05-18T01:06:15.120Z,10.20
2018-05-18T01:08:45.527Z,10.30
2018-05-18T01:11:15.319Z,10.30
2018-05-18T01:13:44.831Z,10.30
2018-05-18T01:16:15.903Z,10.20
2018-05-18T01:18:45.701Z,10.20
2018-05-18T01:21:16.649Z,10.20
2018-05-18T01:23:46.351Z,10.20
2018-05-18T01:26:16.420Z,10.20
2018-05-18T01:28:46.185Z,10.20
2018-05-18T01:31:15.880Z,10.20
2018-05-18T01:33:45.705Z,10.30
2018-05-18T01:36:15.357Z,10.30
2018-05-18T01:38:46.257Z,10.30
2018-05-18T01:41:16.722Z,10.30
2018-05-18T01:43:47.094Z,10.30
2018-05-18T01:46:16.810Z,10.30
2018-05-18T01:48:47.149Z,10.40
2018-05-18T01:51:16.741Z,10.40
2018-05-18T01:53:46.371Z,10.40
2018-05-18T01:56:16.078Z,10.40
2018-05-18T01:58:45.789Z,10.50
2018-05-18T02:01:15.479Z,10.50
2018-05-18T02:03:45.313Z,10.50
2018-05-18T02:06:14.932Z,10.50
2018-05-18T02:08:44.512Z,10.50
2018-05-18T02:11:15.765Z,10.60
2018-05-18T02:13:45.484Z,10.60
2018-05-18T02:16:15.098Z,10.60
2018-05-18T02:18:44.880Z,10.60
2018-05-18T02:21:14.554Z,10.60
2018-05-18T02:23:45.127Z,10.60
2018-05-18T02:26:14.703Z,10.60
2018-05-18T02:28:45.138Z,10.60
2018-05-18T02:31:14.990Z,10.60
2018-05-18T02:33:44.561Z,10.60
2018-05-18T02:36:14.375Z,10.60
2018-05-18T02:38:45.222Z,10.60
2018-05-18T02:41:14.868Z,10.60
2018-05-18T02:43:44.423Z,10.60
2018-05-18T02:46:14.190Z,10.50
2018-05-18T02:48:45.297Z,10.50
2018-05-18T02:51:14.859Z,10.50
2018-05-18T02:53:45.211Z,10.40
2018-05-18T02:56:14.856Z,10.40
2018-05-18T02:58:44.387Z,10.40
2018-05-18T03:01:14.193Z,10.50
2018-05-18T03:03:43.697Z,10.50
2018-05-18T03:06:13.266Z,10.50
2018-05-18T03:08:42.898Z,10.40
2018-05-18T03:11:12.427Z,10.30
2018-05-18T03:13:42.028Z,10.30
2018-05-18T03:16:11.622Z,10.30
2018-05-18T03:18:42.052Z,10.20
2018-05-18T03:21:11.611Z,10.20
2018-05-18T03:23:42.098Z,10.20
2018-05-18T03:26:11.700Z,10.20
2018-05-18T03:28:42.029Z,10.10
2018-05-18T03:31:11.832Z,10.00
2018-05-18T03:33:41.312Z,10.00
2018-05-18T03:36:11.080Z,9.90
2018-05-18T03:38:41.418Z,9.90
2018-05-18T03:41:11.912Z,9.90
2018-05-18T03:43:41.839Z,9.90
2018-05-18T03:46:12.495Z,9.90
2018-05-18T03:48:49.087Z,9.90
2018-05-18T03:54:42.200Z,9.80
2018-05-18T03:57:11.880Z,9.70
2018-05-18T03:59:41.417Z,9.80
2018-05-18T04:02:28.775Z,9.80
2018-05-18T04:05:16.107Z,9.90
2018-05-18T04:08:03.318Z,9.80
2018-05-18T04:10:32.862Z,9.80
2018-05-18T04:13:03.629Z,9.80
2018-05-18T04:15:33.311Z,9.80
2018-05-18T04:18:03.600Z,9.80
2018-05-18T04:20:33.110Z,9.90
2018-05-18T04:23:04.389Z,10.00
2018-05-18T04:25:34.089Z,10.00
2018-05-18T04:28:04.557Z,10.00
2018-05-18T04:30:34.214Z,10.00
2018-05-18T04:33:04.580Z,10.20
2018-05-18T04:35:34.309Z,10.10
2018-05-18T04:38:03.922Z,10.40
2018-05-18T04:40:34.050Z,10.70
2018-05-18T04:43:04.083Z,10.70
2018-05-18T04:45:35.636Z,11.10
2018-05-18T04:48:05.816Z,11.20
2018-05-18T04:50:35.643Z,11.60
2018-05-18T04:53:05.284Z,12.00
2018-05-18T04:55:35.761Z,12.60
2018-05-18T04:58:05.349Z,12.60
2018-05-18T05:00:34.891Z,12.90
2018-05-18T05:03:04.480Z,13.20
2018-05-18T05:05:34.495Z,13.50
2018-05-18T05:08:04.071Z,13.50
2018-05-18T05:10:33.724Z,13.80
2018-05-18T05:13:03.769Z,13.70
2018-05-18T05:15:33.306Z,14.00
2018-05-18T05:18:03.723Z,13.90
2018-05-18T05:20:33.426Z,13.90
2018-05-18T05:23:03.451Z,13.70
2018-05-18T05:25:33.904Z,13.20
2018-05-18T05:28:03.847Z,13.20
2018-05-18T05:30:33.615Z,13.20
2018-05-18T05:33:03.806Z,13.80
2018-05-18T05:35:35.091Z,14.50
2018-05-18T05:38:06.132Z,15.10
2018-05-18T05:40:35.875Z,15.60
2018-05-18T05:43:05.854Z,16.10
2018-05-18T05:45:35.675Z,16.60
2018-05-18T05:48:06.126Z,16.80
2018-05-18T05:50:37.461Z,17.60
2018-05-18T05:53:08.900Z,18.00
2018-05-18T05:55:41.778Z,18.30
2018-05-18T05:58:12.267Z,18.20
2018-05-18T06:00:42.099Z,18.60
2018-05-18T06:03:14.137Z,18.90
2018-05-18T06:05:44.159Z,18.80
2018-05-18T06:08:14.629Z,18.80
2018-05-18T06:10:44.366Z,18.70
2018-05-18T06:13:18.557Z,18.90
2018-05-18T06:15:49.258Z,18.80
2018-05-18T06:18:21.191Z,19.50
2018-05-18T06:20:51.145Z,20.10
2018-05-18T06:23:20.746Z,20.50
2018-05-18T06:25:50.633Z,20.40
2018-05-18T06:28:20.214Z,20.50
2018-05-18T06:30:51.684Z,19.90
2018-05-18T06:33:21.646Z,19.40
2018-05-18T06:35:51.168Z,19.60
2018-05-18T06:38:21.728Z,20.00
2018-05-18T06:40:52.126Z,20.20
2018-05-18T06:43:21.941Z,20.20
2018-05-18T06:45:53.630Z,19.00
2018-05-18T06:48:25.232Z,18.80
2018-05-18T06:50:55.051Z,18.80
2018-05-18T06:53:24.746Z,19.00
2018-05-18T06:55:54.303Z,19.80
2018-05-18T06:58:24.694Z,20.90
2018-05-18T07:00:54.219Z,20.90
2018-05-18T07:03:23.714Z,21.70
2018-05-18T07:05:53.568Z,22.60
2018-05-18T07:08:23.117Z,23.50
2018-05-18T07:10:52.836Z,24.00
2018-05-18T07:13:22.544Z,24.50
2018-05-18T07:15:52.342Z,24.60
2018-05-18T07:18:22.879Z,24.90
2018-05-18T07:20:52.899Z,25.10
2018-05-18T07:23:22.579Z,25.50
2018-05-18T07:25:52.305Z,26.00
2018-05-18T07:28:21.934Z,26.00
2018-05-18T07:30:51.600Z,26.30
2018-05-18T07:33:21.122Z,26.20
2018-05-18T07:35:50.833Z,26.30
2018-05-18T07:38:20.569Z,26.90
2018-05-18T07:40:50.301Z,27.40
2018-05-18T07:43:20.654Z,24.70
2018-05-18T07:45:51.541Z,24.30
2018-05-18T07:48:21.055Z,24.30
2018-05-18T07:50:50.686Z,25.40
2018-05-18T07:53:20.268Z,26.70
2018-05-18T07:55:49.980Z,27.80
2018-05-18T07:58:19.692Z,28.60
2018-05-18T08:00:50.646Z,27.90
2018-05-18T08:03:20.407Z,27.90
2018-05-18T08:05:50.277Z,28.20
2018-05-18T08:08:21.189Z,26.40
2018-05-18T08:10:50.700Z,25.40
2018-05-18T08:13:20.395Z,25.00
2018-05-18T08:15:50.211Z,25.20
2018-05-18T08:18:19.968Z,26.40
2018-05-18T08:20:50.004Z,27.30
2018-05-18T08:23:20.331Z,28.70
2018-05-18T08:25:50.076Z,28.70
2018-05-18T08:28:20.397Z,29.60
2018-05-18T08:31:14.611Z,29.50
2018-05-18T08:33:44.110Z,30.40
2018-05-18T08:36:13.665Z,31.30
2018-05-18T08:38:43.984Z,31.80
2018-05-18T08:41:15.389Z,32.10
2018-05-18T08:43:45.248Z,32.10
2018-05-18T08:46:16.265Z,32.20
2018-05-18T08:48:45.941Z,32.20
2018-05-18T08:51:15.728Z,32.20
2018-05-18T08:53:45.476Z,31.40
2018-05-18T08:56:15.114Z,27.20
2018-05-18T08:58:44.669Z,26.90
2018-05-18T09:01:14.620Z,27.30
2018-05-18T09:03:44.314Z,27.00
2018-05-18T09:06:13.955Z,27.50
2018-05-18T09:08:45.437Z,30.40
2018-05-18T09:11:15.747Z,30.40
2018-05-18T09:13:45.731Z,31.60
2018-05-18T09:16:15.538Z,32.40
2018-05-18T09:18:45.033Z,32.50
2018-05-18T09:21:14.667Z,30.40
2018-05-18T09:23:44.184Z,30.80
2018-05-18T09:26:13.693Z,31.80
2018-05-18T09:28:43.372Z,32.60
2018-05-18T09:31:12.830Z,31.80
2018-05-18T09:33:42.297Z,32.10
2018-05-18T09:36:11.995Z,32.60
2018-05-18T09:38:41.891Z,32.90
2018-05-18T09:41:11.908Z,32.60
2018-05-18T09:43:42.620Z,31.00
2018-05-18T09:46:12.868Z,30.50
2018-05-18T09:48:42.596Z,30.50
2018-05-18T09:51:12.087Z,31.10
2018-05-18T09:53:42.126Z,31.90
2018-05-18T09:56:11.726Z,31.60
2018-05-18T09:58:41.550Z,30.90
2018-05-18T10:01:12.287Z,31.10
2018-05-18T10:03:42.101Z,31.70
2018-05-18T10:06:12.769Z,33.10
2018-05-18T10:08:42.432Z,33.20
2018-05-18T10:11:12.006Z,33.90
2018-05-18T10:13:42.233Z,33.40
2018-05-18T10:16:13.375Z,33.20
2018-05-18T10:18:43.025Z,33.20
2018-05-18T10:21:12.931Z,33.30
2018-05-18T10:23:42.426Z,33.20
2018-05-18T10:29:15.099Z,31.30
2018-05-18T10:31:45.120Z,31.30
2018-05-18T10:34:14.697Z,32.30
2018-05-18T10:36:44.291Z,33.20
2018-05-18T10:39:15.593Z,33.80
2018-05-18T10:42:06.673Z,34.40
2018-05-18T10:44:36.339Z,31.40
2018-05-18T10:47:06.197Z,29.30
2018-05-18T10:49:35.928Z,28.60
2018-05-18T10:52:06.499Z,30.50
2018-05-18T10:54:36.993Z,31.70
2018-05-18T10:57:06.685Z,31.70
2018-05-18T10:59:37.086Z,32.90
2018-05-18T11:02:06.821Z,33.00
2018-05-18T11:04:37.119Z,33.60
2018-05-18T11:07:06.765Z,33.60
2018-05-18T11:09:36.524Z,33.40
2018-05-18T11:12:06.016Z,32.50
2018-05-18T11:14:35.631Z,31.20
2018-05-18T11:17:05.252Z,30.30
2018-05-18T11:19:34.979Z,29.70
2018-05-18T11:22:05.491Z,27.00
2018-05-18T11:24:35.135Z,26.90
2018-05-18T11:27:04.658Z,27.90
2018-05-18T11:29:35.102Z,29.70
2018-05-18T11:32:05.786Z,29.60
2018-05-18T11:34:35.479Z,30.60
2018-05-18T11:37:05.079Z,30.70
2018-05-18T11:39:34.615Z,30.50
2018-05-18T11:42:04.207Z,30.20
2018-05-18T11:44:34.618Z,30.50
2018-05-18T11:47:04.454Z,30.50
2018-05-18T11:49:34.176Z,30.80
2018-05-18T11:52:05.370Z,31.10
2018-05-18T11:54:34.996Z,30.80
2018-05-18T11:57:04.646Z,30.50
2018-05-18T11:59:36.040Z,31.80
2018-05-18T12:02:07.483Z,31.80
2018-05-18T12:04:37.148Z,30.70
2018-05-18T12:07:07.862Z,30.90
2018-05-18T12:09:37.472Z,30.90
2018-05-18T12:12:08.944Z,30.70
2018-05-18T12:14:38.483Z,30.00
2018-05-18T12:17:08.741Z,30.70
2018-05-18T12:19:39.178Z,30.70
2018-05-18T12:22:24.795Z,31.30
2018-05-18T12:24:54.574Z,30.80
2018-05-18T12:27:25.053Z,30.10
2018-05-18T12:29:56.071Z,29.00
2018-05-18T12:32:27.233Z,28.40
2018-05-18T12:34:57.569Z,27.40
2018-05-18T12:37:27.935Z,27.30
2018-05-18T12:39:57.530Z,26.70
2018-05-18T12:42:28.231Z,26.70
2018-05-18T12:44:57.771Z,26.70
2018-05-18T12:47:27.565Z,27.50
2018-05-18T12:49:57.301Z,28.60
2018-05-18T12:52:28.655Z,29.00
2018-05-18T13:04:14.251Z,26.70
2018-05-18T13:06:45.339Z,26.60
2018-05-18T13:09:20.166Z,26.30
2018-05-18T13:11:52.119Z,26.00
2018-05-18T13:14:21.835Z,26.20
2018-05-18T13:16:51.355Z,26.40
2018-05-18T13:19:20.987Z,26.10
2018-05-18T13:21:50.556Z,25.70
2018-05-18T13:24:20.012Z,25.10
2018-05-18T13:26:49.483Z,24.90
2018-05-18T13:29:19.169Z,24.60
2018-05-18T13:31:48.661Z,25.00
2018-05-18T13:34:29.118Z,25.40
2018-05-18T13:36:59.087Z,25.70
2018-05-18T13:39:29.075Z,25.90
2018-05-18T13:41:58.616Z,25.70
2018-05-18T13:44:28.605Z,25.20
2018-05-18T13:46:59.031Z,25.10
2018-05-18T13:49:28.877Z,24.60
2018-05-18T13:51:58.682Z,24.40
2018-05-18T13:54:28.204Z,24.60
2018-05-18T13:56:57.903Z,24.50
2018-05-18T13:59:27.380Z,24.70
2018-05-18T14:01:56.912Z,24.60
2018-05-18T14:04:26.517Z,24.70
2018-05-18T14:06:56.429Z,24.80
2018-05-18T14:09:26.067Z,25.00
2018-05-18T14:11:56.443Z,25.10
2018-05-18T14:14:26.736Z,25.20
2018-05-18T14:16:58.085Z,25.30
2018-05-18T14:19:27.947Z,25.30
2018-05-18T14:21:57.557Z,25.10
2018-05-18T14:24:27.603Z,24.90
2018-05-18T14:26:57.402Z,24.80
2018-05-18T14:29:26.929Z,24.70
2018-05-18T14:31:57.519Z,24.60
2018-05-18T14:34:27.221Z,24.60
2018-05-18T14:36:57.919Z,24.40
2018-05-18T14:39:28.545Z,24.20
2018-05-18T14:41:58.731Z,23.50
2018-05-18T14:44:33.047Z,22.80
2018-05-18T14:47:03.493Z,22.70
2018-05-18T14:49:33.549Z,22.50
2018-05-18T14:52:03.817Z,22.40
2018-05-18T14:54:33.519Z,22.40
2018-05-18T14:57:03.446Z,22.50
2018-05-18T14:59:33.039Z,22.70
2018-05-18T15:02:03.032Z,22.50
2018-05-18T15:04:32.553Z,22.10
2018-05-18T15:07:02.315Z,22.20
2018-05-18T15:09:32.209Z,22.40
2018-05-18T15:12:02.309Z,22.60
2018-05-18T15:14:31.984Z,23.00
2018-05-18T15:17:02.959Z,23.10
2018-05-18T15:19:34.232Z,23.10
2018-05-18T15:22:03.955Z,22.60
2018-05-18T15:24:33.708Z,22.50
2018-05-18T15:27:03.982Z,22.00
2018-05-18T15:29:33.664Z,21.80
2018-05-18T15:32:03.837Z,21.90
2018-05-18T15:34:33.400Z,22.10
2018-05-18T15:37:03.268Z,22.20
2018-05-18T15:39:33.751Z,21.90
2018-05-18T15:42:04.296Z,21.90
2018-05-18T15:44:38.100Z,21.90
2018-05-18T15:47:07.857Z,21.80
2018-05-18T15:49:39.355Z,21.50
2018-05-18T15:52:09.218Z,21.40
2018-05-18T15:54:40.005Z,21.50
2018-05-18T15:57:09.684Z,21.40
2018-05-18T15:59:39.307Z,21.50
2018-05-18T16:02:08.885Z,21.50
2018-05-18T16:04:39.355Z,21.60
2018-05-18T16:07:09.442Z,21.60
2018-05-18T16:09:39.929Z,21.70
2018-05-18T16:12:09.715Z,21.60
2018-05-18T16:14:39.728Z,21.50
2018-05-18T16:17:10.611Z,21.40
2018-05-18T16:19:40.460Z,21.30
2018-05-18T16:22:10.329Z,21.10
2018-05-18T16:24:40.113Z,21.00
2018-05-18T16:27:12.660Z,20.70
2018-05-18T16:29:43.225Z,20.60
2018-05-18T16:32:12.983Z,20.60
2018-05-18T16:34:43.527Z,20.50
2018-05-18T16:37:13.179Z,20.50
2018-05-18T16:39:43.166Z,20.50
2018-05-18T16:42:12.803Z,20.50
2018-05-18T16:44:42.607Z,20.50
2018-05-18T16:47:12.944Z,20.50
2018-05-18T16:49:42.447Z,20.50
2018-05-18T16:52:11.915Z,20.50
2018-05-18T16:54:42.163Z,20.60
2018-05-18T16:57:11.627Z,20.50
2018-05-18T16:59:42.015Z,20.50
2018-05-18T17:02:16.998Z,20.50
2018-05-18T17:04:47.404Z,20.50
2018-05-18T17:07:17.528Z,20.40
2018-05-18T17:09:47.251Z,20.40
2018-05-18T17:12:17.534Z,20.30
2018-05-18T17:14:47.934Z,20.30
2018-05-18T17:17:17.359Z,20.20
2018-05-18T17:19:48.093Z,20.20
2018-05-18T17:22:17.564Z,20.20
2018-05-18T17:24:47.843Z,20.00
2018-05-18T17:27:17.415Z,20.00
2018-05-18T17:29:47.849Z,20.00
2018-05-18T17:32:17.469Z,19.90
2018-05-18T17:34:46.913Z,19.90
2018-05-18T17:37:16.677Z,19.80
2018-05-18T17:39:46.189Z,19.80
2018-05-18T17:42:16.048Z,19.80
2018-05-18T17:44:45.559Z,19.70
2018-05-18T17:47:15.225Z,19.70
2018-05-18T17:49:44.943Z,19.60
2018-05-18T17:52:14.521Z,19.60
2018-05-18T17:54:44.125Z,19.50
2018-05-18T17:57:13.639Z,19.40
2018-05-18T17:59:44.687Z,19.40
2018-05-18T18:02:14.300Z,19.40
2018-05-18T18:04:44.070Z,19.40
2018-05-18T18:07:13.711Z,19.40
2018-05-18T18:09:43.321Z,19.30
2018-05-18T18:12:13.939Z,19.30
2018-05-18T18:14:44.819Z,19.20
2018-05-18T18:17:14.398Z,19.20
2018-05-18T18:19:46.906Z,19.20
2018-05-18T18:22:16.502Z,19.20
2018-05-18T18:24:46.299Z,19.10
2018-05-18T18:27:15.907Z,19.10
2018-05-18T18:29:46.239Z,19.10
2018-05-18T18:32:15.923Z,19.00
2018-05-18T18:34:45.591Z,18.90
2018-05-18T18:37:15.641Z,18.70
2018-05-18T18:39:46.081Z,18.50
2018-05-18T18:42:15.947Z,18.50
2018-05-18T18:44:45.509Z,18.50
2018-05-18T18:47:15.136Z,18.50
2018-05-18T18:49:44.775Z,18.50
2018-05-18T18:52:16.248Z,18.40
2018-05-18T18:54:45.940Z,18.40
2018-05-18T18:57:15.493Z,18.40
2018-05-18T18:59:44.983Z,18.40
2018-05-18T19:02:14.723Z,18.40
2018-05-18T19:04:44.420Z,18.30
2018-05-18T19:07:15.579Z,18.30
2018-05-18T19:09:45.404Z,18.10
2018-05-18T19:12:20.948Z,18.10
2018-05-18T19:14:50.742Z,18.00
2018-05-18T19:17:20.715Z,18.00
2018-05-18T19:19:50.338Z,17.90
2018-05-18T19:22:21.988Z,17.90
2018-05-18T19:24:52.313Z,17.90
2018-05-18T19:27:24.683Z,17.80
2018-05-18T19:29:54.480Z,17.80
2018-05-18T19:32:24.505Z,17.70
2018-05-18T19:34:54.371Z,17.70
2018-05-18T19:37:25.803Z,17.70
2018-05-18T19:39:55.953Z,17.60
2018-05-18T19:42:26.069Z,17.50
2018-05-18T19:44:55.802Z,17.30
2018-05-18T19:47:25.796Z,17.30
2018-05-18T19:49:55.973Z,17.10
2018-05-18T19:52:25.840Z,17.10
2018-05-18T19:54:55.416Z,16.90
2018-05-18T19:57:25.826Z,16.70
2018-05-18T19:59:56.136Z,16.70
2018-05-18T20:02:26.322Z,16.70
2018-05-18T20:04:56.859Z,16.70
2018-05-18T20:07:27.001Z,16.80
2018-05-18T20:09:56.993Z,16.80
2018-05-18T20:16:45.581Z,16.80
2018-05-18T20:19:20.364Z,16.80
2018-05-18T20:21:49.993Z,16.70
2018-05-18T20:24:19.771Z,16.60
2018-05-18T20:26:50.334Z,16.60
2018-05-18T20:29:21.178Z,16.40
2018-05-18T20:31:50.796Z,16.40
2018-05-18T20:34:20.633Z,16.30
2018-05-18T20:36:50.335Z,16.20
2018-05-18T20:39:20.460Z,16.20
2018-05-18T20:45:01.504Z,16.10
2018-05-18T20:47:57.068Z,16.10
2018-05-18T20:50:26.866Z,16.10
2018-05-18T20:52:56.799Z,15.90
2018-05-18T20:55:27.946Z,15.80
2018-05-18T20:57:59.915Z,15.70
2018-05-18T21:00:31.235Z,15.60
2018-05-18T21:03:01.568Z,15.60
2018-05-18T21:05:31.788Z,15.60
2018-05-18T21:08:02.367Z,15.60
2018-05-18T21:13:51.750Z,15.70
2018-05-18T21:16:23.351Z,15.70
2018-05-18T21:18:53.278Z,15.80
2018-05-18T21:21:22.986Z,15.70
2018-05-18T21:23:53.021Z,15.70
2018-05-18T21:26:24.375Z,15.60
2018-05-18T21:28:54.145Z,15.50
2018-05-18T21:31:24.574Z,15.50
2018-05-18T21:33:54.919Z,15.40
2018-05-18T21:36:25.070Z,15.40
2018-05-18T21:38:55.672Z,15.30
2018-05-18T21:41:25.484Z,15.20
2018-05-18T21:43:58.629Z,15.20
2018-05-18T21:46:29.303Z,15.10
2018-05-18T21:48:59.336Z,15.00
2018-05-18T21:51:29.702Z,15.10
2018-05-18T21:53:59.546Z,15.10
2018-05-18T21:56:30.251Z,15.10
2018-05-18T21:58:59.951Z,15.00
2018-05-18T22:01:41.383Z,15.00
2018-05-18T22:04:15.710Z,15.00
2018-05-18T22:06:45.690Z,14.90
2018-05-18T22:09:17.251Z,14.80
2018-05-18T22:11:46.993Z,14.70
2018-05-18T22:14:16.862Z,14.60
2018-05-18T22:16:47.652Z,14.50
2018-05-18T22:19:17.471Z,14.50
2018-05-18T22:21:47.238Z,14.40
2018-05-18T22:24:17.377Z,14.30
2018-05-18T22:26:47.098Z,14.20
2018-05-18T22:29:18.197Z,14.20
2018-05-18T22:31:47.925Z,14.30
2018-05-18T22:34:17.879Z,14.30
2018-05-18T22:36:47.661Z,14.30
2018-05-18T22:39:17.555Z,14.30
2018-05-18T22:45:04.289Z,14.20
2018-05-18T22:47:35.446Z,14.20
2018-05-18T22:50:06.595Z,14.10
2018-05-18T22:53:24.746Z,13.90
2018-05-18T22:55:57.447Z,13.80
2018-05-18T22:58:27.268Z,13.80
2018-05-18T23:01:04.590Z,13.80
2018-05-18T23:03:35.301Z,13.80
2018-05-18T23:06:06.193Z,13.60
2018-05-18T23:08:36.975Z,13.40
2018-05-18T23:11:06.687Z,13.40
2018-05-18T23:17:10.861Z,13.60
2018-05-18T23:19:40.946Z,13.50
2018-05-18T23:22:13.609Z,13.70
2018-05-18T23:25:02.046Z,13.70
2018-05-18T23:27:32.271Z,13.60
2018-05-18T23:30:02.615Z,13.60
2018-05-18T23:32:32.289Z,13.60
2018-05-18T23:35:02.153Z,13.60
2018-05-18T23:37:32.026Z,13.60
2018-05-18T23:40:09.299Z,13.60
2018-05-18T23:42:39.493Z,13.60
2018-05-18T23:45:09.120Z,13.50
2018-05-18T23:47:38.671Z,13.40
2018-05-18T23:50:08.398Z,13.30
2018-05-18T23:52:38.401Z,13.50
2018-05-18T23:55:19.155Z,13.40
2018-05-18T23:57:49.148Z,13.40
